sensor_id;sensor_type;location;lat;lon;timestamp;pressure;altitude;pressure_sealevel;temperature;humidity
32320;BME280;19080;51.750;5.888;2023-11-19T00:01:05;100659.97;;;13.79;100.00
32320;BME280;19080;51.750;5.888;2023-11-19T00:03:32;100662.66;;;13.82;100.00
32320;BME280;19080;51.750;5.888;2023-11-19T00:06:01;100655.53;;;13.85;100.00
32320;BME280;19080;51.750;5.888;2023-11-19T00:08:27;100639.53;;;13.85;100.00
32320;BME280;19080;51.750;5.888;2023-11-19T00:10:54;100649.25;;;13.92;100.00
32320;BME280;19080;51.750;5.888;2023-11-19T00:13:20;100617.31;;;13.80;100.00
32320;BME280;19080;51.750;5.888;2023-11-19T00:15:48;100635.91;;;13.91;100.00
32320;BME280;19080;51.750;5.888;2023-11-19T00:18:15;100630.56;;;13.94;100.00
32320;BME280;19080;51.750;5.888;2023-11-19T00:20:42;100628.81;;;13.93;100.00
32320;BME280;19080;51.750;5.888;2023-11-19T00:23:11;100625.25;;;13.94;100.00
32320;BME280;19080;51.750;5.888;2023-11-19T00:25:37;100609.22;;;13.94;100.00
32320;BME280;19080;51.750;5.888;2023-11-19T00:28:05;100577.28;;;13.82;100.00
32320;BME280;19080;51.750;5.888;2023-11-19T00:30:32;100595.88;;;13.97;100.00
32320;BME280;19080;51.750;5.888;2023-11-19T00:32:58;100591.47;;;13.87;100.00
32320;BME280;19080;51.750;5.888;2023-11-19T00:35:25;100612.78;;;13.99;100.00
32320;BME280;19080;51.750;5.888;2023-11-19T00:37:52;100606.56;;;13.94;100.00
32320;BME280;19080;51.750;5.888;2023-11-19T00:40:20;100605.66;;;14.01;100.00
32320;BME280;19080;51.750;5.888;2023-11-19T00:42:49;100595.00;;;13.92;100.00
32320;BME280;19080;51.750;5.888;2023-11-19T00:45:16;100601.22;;;13.94;100.00
32320;BME280;19080;51.750;5.888;2023-11-19T00:47:43;100604.78;;;13.99;100.00
32320;BME280;19080;51.750;5.888;2023-11-19T00:50:10;100603.88;;;14.00;100.00
32320;BME280;19080;51.750;5.888;2023-11-19T00:52:37;100600.31;;;14.01;100.00
32320;BME280;19080;51.750;5.888;2023-11-19T00:55:05;100599.44;;;13.99;100.00
32320;BME280;19080;51.750;5.888;2023-11-19T00:57:32;100611.88;;;14.06;100.00
32320;BME280;19080;51.750;5.888;2023-11-19T00:59:59;100611.88;;;14.06;100.00
32320;BME280;19080;51.750;5.888;2023-11-19T01:02:26;100580.75;;;13.96;100.00
32320;BME280;19080;51.750;5.888;2023-11-19T01:04:53;100602.09;;;14.05;100.00
32320;BME280;19080;51.750;5.888;2023-11-19T01:07:19;100589.66;;;13.99;100.00
32320;BME280;19080;51.750;5.888;2023-11-19T01:09:48;100610.09;;;14.10;100.00
32320;BME280;19080;51.750;5.888;2023-11-19T01:12:15;100598.53;;;14.01;100.00
32320;BME280;19080;51.750;5.888;2023-11-19T01:14:44;100594.97;;;14.07;100.00
32320;BME280;19080;51.750;5.888;2023-11-19T01:17:11;100599.41;;;14.07;100.00
32320;BME280;19080;51.750;5.888;2023-11-19T01:19:38;100590.53;;;14.05;100.00
32320;BME280;19080;51.750;5.888;2023-11-19T01:22:04;100584.31;;;14.04;100.00
32320;BME280;19080;51.750;5.888;2023-11-19T01:24:32;100568.31;;;13.93;100.00
32320;BME280;19080;51.750;5.888;2023-11-19T01:26:59;100587.84;;;14.06;100.00
32320;BME280;19080;51.750;5.888;2023-11-19T01:29:26;100594.06;;;14.10;100.00
32320;BME280;19080;51.750;5.888;2023-11-19T01:31:53;100595.84;;;14.09;100.00
32320;BME280;19080;51.750;5.888;2023-11-19T01:34:20;100591.41;;;14.08;100.00
32320;BME280;19080;51.750;5.888;2023-11-19T01:36:47;100575.41;;;14.02;100.00
32320;BME280;19080;51.750;5.888;2023-11-19T01:39:15;100563.84;;;14.03;100.00
32320;BME280;19080;51.750;5.888;2023-11-19T01:41:46;100555.84;;;14.03;100.00
32320;BME280;19080;51.750;5.888;2023-11-19T01:44:13;100572.75;;;14.04;100.00
32320;BME280;19080;51.750;5.888;2023-11-19T01:46:44;100569.16;;;14.09;100.00
32320;BME280;19080;51.750;5.888;2023-11-19T01:49:15;100517.72;;;13.80;100.00
32320;BME280;19080;51.750;5.888;2023-11-19T01:51:42;100582.47;;;14.15;100.00
32320;BME280;19080;51.750;5.888;2023-11-19T01:54:09;100562.94;;;14.07;100.00
32320;BME280;19080;51.750;5.888;2023-11-19T01:56:38;100581.59;;;14.13;100.00
32320;BME280;19080;51.750;5.888;2023-11-19T01:59:09;100568.28;;;14.10;100.00
32320;BME280;19080;51.750;5.888;2023-11-19T02:01:37;100591.38;;;14.14;100.00
32320;BME280;19080;51.750;5.888;2023-11-19T02:04:07;100587.81;;;14.15;100.00
32320;BME280;19080;51.750;5.888;2023-11-19T02:06:40;100581.59;;;14.12;100.00
32320;BME280;19080;51.750;5.888;2023-11-19T02:09:09;100571.81;;;14.09;100.00
32320;BME280;19080;51.750;5.888;2023-11-19T02:11:39;100570.06;;;14.08;100.00
32320;BME280;19080;51.750;5.888;2023-11-19T02:14:06;100566.50;;;14.06;100.00
32320;BME280;19080;51.750;5.888;2023-11-19T02:16:33;100570.06;;;14.05;100.00
32320;BME280;19080;51.750;5.888;2023-11-19T02:19:00;100562.94;;;14.07;100.00
32320;BME280;19080;51.750;5.888;2023-11-19T02:21:27;100566.53;;;14.01;100.00
32320;BME280;19080;51.750;5.888;2023-11-19T02:23:54;100571.88;;;14.00;100.00
32320;BME280;19080;51.750;5.888;2023-11-19T02:26:40;100550.53;;;13.94;100.00
32320;BME280;19080;51.750;5.888;2023-11-19T02:29:07;100562.06;;;14.02;100.00
32320;BME280;19080;51.750;5.888;2023-11-19T02:31:34;100541.66;;;13.87;100.00
32320;BME280;19080;51.750;5.888;2023-11-19T02:34:01;100573.66;;;13.89;100.00
32320;BME280;19080;51.750;5.888;2023-11-19T02:36:30;100556.81;;;13.82;100.00
32320;BME280;19080;51.750;5.888;2023-11-19T02:38:58;100561.22;;;13.91;100.00
32320;BME280;19080;51.750;5.888;2023-11-19T02:41:25;100565.66;;;13.89;100.00
32320;BME280;19080;51.750;5.888;2023-11-19T02:43:51;100566.56;;;13.88;100.00
32320;BME280;19080;51.750;5.888;2023-11-19T02:46:18;100541.72;;;13.74;100.00
32320;BME280;19080;51.750;5.888;2023-11-19T02:48:45;100570.16;;;13.82;100.00
32320;BME280;19080;51.750;5.888;2023-11-19T02:51:12;100560.41;;;13.67;100.00
32320;BME280;19080;51.750;5.888;2023-11-19T02:53:39;100582.63;;;13.76;100.00
32320;BME280;19080;51.750;5.888;2023-11-19T02:56:07;100566.63;;;13.66;100.00
32320;BME280;19080;51.750;5.888;2023-11-19T02:58:52;100528.44;;;13.51;100.00
32320;BME280;19080;51.750;5.888;2023-11-19T03:01:23;100564.84;;;13.70;100.00
32320;BME280;19080;51.750;5.888;2023-11-19T03:04:00;100559.53;;;13.68;100.00
32320;BME280;19080;51.750;5.888;2023-11-19T03:06:28;100561.31;;;13.66;100.00
32320;BME280;19080;51.750;5.888;2023-11-19T03:08:55;100559.53;;;13.56;100.00
32320;BME280;19080;51.750;5.888;2023-11-19T03:11:22;100562.22;;;13.59;100.00
32320;BME280;19080;51.750;5.888;2023-11-19T03:13:49;100558.66;;;13.62;100.00
32320;BME280;19080;51.750;5.888;2023-11-19T03:16:15;100557.78;;;13.51;100.00
32320;BME280;19080;51.750;5.888;2023-11-19T03:18:43;100557.78;;;13.58;100.00
32320;BME280;19080;51.750;5.888;2023-11-19T03:21:10;100570.19;;;13.62;100.00
32320;BME280;19080;51.750;5.888;2023-11-19T03:23:37;100564.88;;;13.53;100.00
32320;BME280;19080;51.750;5.888;2023-11-19T03:26:03;100574.66;;;13.50;100.00
32320;BME280;19080;51.750;5.888;2023-11-19T03:28:32;100572.91;;;13.46;100.00
32320;BME280;19080;51.750;5.888;2023-11-19T03:30:58;100564.91;;;13.32;100.00
32320;BME280;19080;51.750;5.888;2023-11-19T03:33:25;100551.56;;;13.24;100.00
32320;BME280;19080;51.750;5.888;2023-11-19T03:35:56;100561.31;;;13.15;100.00
32320;BME280;19080;51.750;5.888;2023-11-19T03:38:23;100556.88;;;13.00;100.00
32320;BME280;19080;51.750;5.888;2023-11-19T03:40:51;100564.84;;;12.95;100.00
32320;BME280;19080;51.750;5.888;2023-11-19T03:43:17;100539.97;;;12.75;100.00
32320;BME280;19080;51.750;5.888;2023-11-19T03:45:45;100561.28;;;12.75;100.00
32320;BME280;19080;51.750;5.888;2023-11-19T03:48:13;100561.25;;;12.63;100.00
32320;BME280;19080;51.750;5.888;2023-11-19T03:50:43;100560.34;;;12.59;100.00
32320;BME280;19080;51.750;5.888;2023-11-19T03:53:09;100554.13;;;12.57;100.00
32320;BME280;19080;51.750;5.888;2023-11-19T03:55:36;100558.56;;;12.52;100.00
32320;BME280;19080;51.750;5.888;2023-11-19T03:58:03;100555.88;;;12.45;100.00
32320;BME280;19080;51.750;5.888;2023-11-19T04:00:30;100540.75;;;12.30;100.00
32320;BME280;19080;51.750;5.888;2023-11-19T04:02:58;100543.41;;;12.28;100.00
32320;BME280;19080;51.750;5.888;2023-11-19T04:05:25;100575.38;;;12.34;100.00
32320;BME280;19080;51.750;5.888;2023-11-19T04:07:51;100569.09;;;12.20;100.00
32320;BME280;19080;51.750;5.888;2023-11-19T04:10:18;100577.06;;;12.20;100.00
32320;BME280;19080;51.750;5.888;2023-11-19T04:12:45;100553.09;;;12.07;100.00
32320;BME280;19080;51.750;5.888;2023-11-19T04:15:12;100562.84;;;12.06;100.00
32320;BME280;19080;51.750;5.888;2023-11-19T04:17:39;100562.88;;;12.09;100.00
32320;BME280;19080;51.750;5.888;2023-11-19T04:20:06;100561.09;;;12.05;100.00
32320;BME280;19080;51.750;5.888;2023-11-19T04:22:37;100549.53;;;11.98;100.00
32320;BME280;19080;51.750;5.888;2023-11-19T04:25:04;100577.06;;;12.11;100.00
32320;BME280;19080;51.750;5.888;2023-11-19T04:27:31;100580.59;;;12.07;100.00
32320;BME280;19080;51.750;5.888;2023-11-19T04:29:57;100575.28;;;12.07;100.00
32320;BME280;19080;51.750;5.888;2023-11-19T04:32:24;100569.03;;;11.97;100.00
32320;BME280;19080;51.750;5.888;2023-11-19T04:34:53;100593.91;;;12.05;100.00
32320;BME280;19080;51.750;5.888;2023-11-19T04:37:19;100596.56;;;12.07;100.00
32320;BME280;19080;51.750;5.888;2023-11-19T04:39:46;100599.22;;;12.04;100.00
32320;BME280;19080;51.750;5.888;2023-11-19T04:42:13;100585.84;;;11.92;100.00
32320;BME280;19080;51.750;5.888;2023-11-19T04:44:43;100582.25;;;11.87;100.00
32320;BME280;19080;51.750;5.888;2023-11-19T04:47:10;100591.19;;;11.98;100.00
32320;BME280;19080;51.750;5.888;2023-11-19T04:49:40;100571.63;;;11.84;100.00
32320;BME280;19080;51.750;5.888;2023-11-19T04:52:09;100584.91;;;11.82;100.00
32320;BME280;19080;51.750;5.888;2023-11-19T04:54:40;100584.00;;;11.79;100.00
32320;BME280;19080;51.750;5.888;2023-11-19T04:57:07;100569.72;;;11.70;100.00
32320;BME280;19080;51.750;5.888;2023-11-19T04:59:36;100594.66;;;11.85;100.00
32320;BME280;19080;51.750;5.888;2023-11-19T05:02:03;100576.81;;;11.71;100.00
32320;BME280;19080;51.750;5.888;2023-11-19T05:04:31;100594.63;;;11.79;100.00
32320;BME280;19080;51.750;5.888;2023-11-19T05:06:57;100584.78;;;11.68;100.00
32320;BME280;19080;51.750;5.888;2023-11-19T05:09:24;100598.09;;;11.71;100.00
32320;BME280;19080;51.750;5.888;2023-11-19T05:11:51;100592.78;;;11.71;100.00
32320;BME280;19080;51.750;5.888;2023-11-19T05:14:18;100603.44;;;11.74;100.00
32320;BME280;19080;51.750;5.888;2023-11-19T05:16:48;100595.44;;;11.71;100.00
32320;BME280;19080;51.750;5.888;2023-11-19T05:19:15;100590.06;;;11.65;100.00
32320;BME280;19080;51.750;5.888;2023-11-19T05:21:42;100580.34;;;11.66;100.00
32320;BME280;19080;51.750;5.888;2023-11-19T05:24:10;100576.72;;;11.56;100.00
32320;BME280;19080;51.750;5.888;2023-11-19T05:26:38;100592.78;;;11.74;100.00
32320;BME280;19080;51.750;5.888;2023-11-19T05:29:04;100580.34;;;11.67;100.00
32320;BME280;19080;51.750;5.888;2023-11-19T05:31:31;100596.34;;;11.77;100.00
32320;BME280;19080;51.750;5.888;2023-11-19T05:34:02;100591.00;;;11.70;100.00
32320;BME280;19080;51.750;5.888;2023-11-19T05:36:29;100583.00;;;11.69;100.00
32320;BME280;19080;51.750;5.888;2023-11-19T05:38:56;100573.19;;;11.59;100.00
32320;BME280;19080;51.750;5.888;2023-11-19T05:41:22;100591.81;;;11.62;100.00
32320;BME280;19080;51.750;5.888;2023-11-19T05:43:49;100601.59;;;11.66;100.00
32320;BME280;19080;51.750;5.888;2023-11-19T05:46:16;100598.03;;;11.62;100.00
32320;BME280;19080;51.750;5.888;2023-11-19T05:48:47;100600.66;;;11.59;100.00
32320;BME280;19080;51.750;5.888;2023-11-19T05:51:14;100615.75;;;11.63;100.00
32320;BME280;19080;51.750;5.888;2023-11-19T05:53:44;100629.06;;;11.63;100.00
32320;BME280;19080;51.750;5.888;2023-11-19T05:56:12;100629.06;;;11.63;100.00
32320;BME280;19080;51.750;5.888;2023-11-19T05:58:39;100631.72;;;11.66;100.00
32320;BME280;19080;51.750;5.888;2023-11-19T06:01:06;100612.19;;;11.60;100.00
32320;BME280;19080;51.750;5.888;2023-11-19T06:03:35;100589.94;;;11.46;100.00
32320;BME280;19080;51.750;5.888;2023-11-19T06:06:01;100609.59;;;11.67;100.00
32320;BME280;19080;51.750;5.888;2023-11-19T06:08:28;100603.38;;;11.68;100.00
32320;BME280;19080;51.750;5.888;2023-11-19T06:10:56;100594.50;;;11.66;100.00
32320;BME280;19080;51.750;5.888;2023-11-19T06:13:22;100581.16;;;11.56;100.00
32320;BME280;19080;51.750;5.888;2023-11-19T06:15:51;100592.69;;;11.61;100.00
32320;BME280;19080;51.750;5.888;2023-11-19T06:18:18;100574.00;;;11.47;100.00
32320;BME280;19080;51.750;5.888;2023-11-19T06:20:46;100603.34;;;11.61;100.00
32320;BME280;19080;51.750;5.888;2023-11-19T06:23:13;100598.84;;;11.52;100.00
32320;BME280;19080;51.750;5.888;2023-11-19T06:25:39;100603.28;;;11.53;100.00
32320;BME280;19080;51.750;5.888;2023-11-19T06:28:06;100603.34;;;11.61;100.00
32320;BME280;19080;51.750;5.888;2023-11-19T06:30:33;100601.53;;;11.57;100.00
32320;BME280;19080;51.750;5.888;2023-11-19T06:33:00;100586.38;;;11.44;100.00
32320;BME280;19080;51.750;5.888;2023-11-19T06:35:27;100608.59;;;11.52;100.00
32320;BME280;19080;51.750;5.888;2023-11-19T06:37:55;100599.72;;;11.50;100.00
32320;BME280;19080;51.750;5.888;2023-11-19T06:40:22;100604.09;;;11.46;100.00
32320;BME280;19080;51.750;5.888;2023-11-19T06:42:49;100599.69;;;11.45;100.00
32320;BME280;19080;51.750;5.888;2023-11-19T06:45:16;100607.66;;;11.47;100.00
32320;BME280;19080;51.750;5.888;2023-11-19T06:47:43;100615.63;;;11.47;100.00
32320;BME280;19080;51.750;5.888;2023-11-19T06:50:09;100624.50;;;11.47;100.00
32320;BME280;19080;51.750;5.888;2023-11-19T06:52:38;100602.28;;;11.37;100.00
32320;BME280;19080;51.750;5.888;2023-11-19T06:55:06;100613.94;;;11.56;100.00
32320;BME280;19080;51.750;5.888;2023-11-19T06:57:34;100599.75;;;11.54;100.00
32320;BME280;19080;51.750;5.888;2023-11-19T07:00:01;100624.66;;;11.68;100.00
32320;BME280;19080;51.750;5.888;2023-11-19T07:02:28;100628.19;;;11.67;100.00
32320;BME280;19080;51.750;5.888;2023-11-19T07:04:54;100603.25;;;11.49;100.00
32320;BME280;19080;51.750;5.888;2023-11-19T07:07:21;100637.94;;;11.68;100.00
32320;BME280;19080;51.750;5.888;2023-11-19T07:09:48;100633.44;;;11.58;100.00
32320;BME280;19080;51.750;5.888;2023-11-19T07:12:14;100648.50;;;11.59;100.00
32320;BME280;19080;51.750;5.888;2023-11-19T07:14:42;100651.16;;;11.59;100.00
32320;BME280;19080;51.750;5.888;2023-11-19T07:17:09;100653.00;;;11.66;100.00
32320;BME280;19080;51.750;5.888;2023-11-19T07:19:37;100635.22;;;11.58;100.00
32320;BME280;19080;51.750;5.888;2023-11-19T07:22:05;100651.22;;;11.64;100.00
32320;BME280;19080;51.750;5.888;2023-11-19T07:24:33;100634.28;;;11.53;100.00
32320;BME280;19080;51.750;5.888;2023-11-19T07:27:00;100643.16;;;11.53;100.00
32320;BME280;19080;51.750;5.888;2023-11-19T07:29:27;100655.66;;;11.65;100.00
32320;BME280;19080;51.750;5.888;2023-11-19T07:31:55;100661.94;;;11.74;100.00
32320;BME280;19080;51.750;5.888;2023-11-19T07:34:24;100669.13;;;11.85;100.00
32320;BME280;19080;51.750;5.888;2023-11-19T07:36:51;100672.75;;;11.96;100.00
32320;BME280;19080;51.750;5.888;2023-11-19T07:39:19;100673.72;;;12.10;100.00
32320;BME280;19080;51.750;5.888;2023-11-19T07:41:47;100668.41;;;12.18;100.00
32320;BME280;19080;51.750;5.888;2023-11-19T07:44:14;100676.44;;;12.22;100.00
32320;BME280;19080;51.750;5.888;2023-11-19T07:46:40;100648.88;;;12.14;100.00
32320;BME280;19080;51.750;5.888;2023-11-19T07:49:09;100681.00;;;12.49;100.00
32320;BME280;19080;51.750;5.888;2023-11-19T07:51:36;100676.69;;;12.80;100.00
32320;BME280;19080;51.750;5.888;2023-11-19T07:54:03;100680.34;;;13.13;100.00
32320;BME280;19080;51.750;5.888;2023-11-19T07:56:32;100680.41;;;13.31;100.00
32320;BME280;19080;51.750;5.888;2023-11-19T07:59:01;100676.88;;;13.38;100.00
32320;BME280;19080;51.750;5.888;2023-11-19T08:01:28;100657.31;;;13.41;100.00
32320;BME280;19080;51.750;5.888;2023-11-19T08:03:55;100684.00;;;13.66;100.00
32320;BME280;19080;51.750;5.888;2023-11-19T08:06:26;100681.31;;;13.71;100.00
32320;BME280;19080;51.750;5.888;2023-11-19T08:08:53;100675.09;;;13.80;100.00
32320;BME280;19080;51.750;5.888;2023-11-19T08:11:19;100667.03;;;13.96;100.00
32320;BME280;19080;51.750;5.888;2023-11-19T08:13:46;100668.84;;;13.87;100.00
32320;BME280;19080;51.750;5.888;2023-11-19T08:16:14;100676.00;;;13.83;100.00
32320;BME280;19080;51.750;5.888;2023-11-19T08:18:44;100687.53;;;13.81;100.00
32320;BME280;19080;51.750;5.888;2023-11-19T08:21:11;100684.00;;;13.80;100.00
32320;BME280;19080;51.750;5.888;2023-11-19T08:23:37;100670.63;;;13.89;100.00
32320;BME280;19080;51.750;5.888;2023-11-19T08:26:05;100656.38;;;13.95;100.00
32320;BME280;19080;51.750;5.888;2023-11-19T08:28:32;100676.78;;;14.20;100.00
32320;BME280;19080;51.750;5.888;2023-11-19T08:31:01;100674.13;;;14.16;100.00
32320;BME280;19080;51.750;5.888;2023-11-19T08:33:30;100683.06;;;13.96;100.00
32320;BME280;19080;51.750;5.888;2023-11-19T08:35:57;100669.78;;;13.67;100.00
32320;BME280;19080;51.750;5.888;2023-11-19T08:38:24;100682.22;;;13.64;100.00
32320;BME280;19080;51.750;5.888;2023-11-19T08:40:55;100683.09;;;13.81;100.00
32320;BME280;19080;51.750;5.888;2023-11-19T08:43:26;100691.09;;;13.86;100.00
32320;BME280;19080;51.750;5.888;2023-11-19T08:45:53;100676.88;;;13.85;100.00
32320;BME280;19080;51.750;5.888;2023-11-19T08:48:20;100684.78;;;14.25;100.00
32320;BME280;19080;51.750;5.888;2023-11-19T08:50:47;100677.66;;;14.42;100.00
32320;BME280;19080;51.750;5.888;2023-11-19T08:53:14;100678.53;;;14.30;100.00
32320;BME280;19080;51.750;5.888;2023-11-19T08:55:41;100679.41;;;14.39;100.00
32320;BME280;19080;51.750;5.888;2023-11-19T08:58:08;100678.47;;;14.64;100.00
32320;BME280;19080;51.750;5.888;2023-11-19T09:00:35;100688.72;;;15.43;100.00
32320;BME280;19080;51.750;5.888;2023-11-19T09:03:01;100695.66;;;15.69;100.00
32320;BME280;19080;51.750;5.888;2023-11-19T09:05:29;100674.25;;;15.69;100.00
32320;BME280;19080;51.750;5.888;2023-11-19T09:07:55;100687.88;;;15.34;100.00
32320;BME280;19080;51.750;5.888;2023-11-19T09:10:22;100679.22;;;14.90;100.00
32320;BME280;19080;51.750;5.888;2023-11-19T09:12:48;100692.69;;;14.72;100.00
32320;BME280;19080;51.750;5.888;2023-11-19T09:15:15;100686.53;;;14.50;100.00
32320;BME280;19080;51.750;5.888;2023-11-19T09:17:42;100690.97;;;14.56;100.00
32320;BME280;19080;51.750;5.888;2023-11-19T09:20:09;100686.56;;;14.43;100.00
32320;BME280;19080;51.750;5.888;2023-11-19T09:22:38;100695.31;;;14.81;100.00
32320;BME280;19080;51.750;5.888;2023-11-19T09:25:05;100691.00;;;14.31;100.00
32320;BME280;19080;51.750;5.888;2023-11-19T09:27:32;100692.81;;;14.07;100.00
32320;BME280;19080;51.750;5.888;2023-11-19T09:29:59;100705.28;;;13.88;100.00
32320;BME280;19080;51.750;5.888;2023-11-19T09:32:25;100700.00;;;13.85;100.00
32320;BME280;19080;51.750;5.888;2023-11-19T09:34:52;100697.34;;;13.85;100.00
32320;BME280;19080;51.750;5.888;2023-11-19T09:37:19;100703.56;;;13.78;100.00
32320;BME280;19080;51.750;5.888;2023-11-19T09:39:48;100678.66;;;13.51;100.00
32320;BME280;19080;51.750;5.888;2023-11-19T09:42:14;100702.66;;;13.60;100.00
32320;BME280;19080;51.750;5.888;2023-11-19T09:44:42;100695.56;;;13.62;100.00
32320;BME280;19080;51.750;5.888;2023-11-19T09:47:11;100692.00;;;13.63;100.00
32320;BME280;19080;51.750;5.888;2023-11-19T09:49:38;100655.53;;;13.65;100.00
32320;BME280;19080;51.750;5.888;2023-11-19T09:52:05;100686.63;;;13.94;100.00
32320;BME280;19080;51.750;5.888;2023-11-19T09:54:32;100684.81;;;14.08;100.00
32320;BME280;19080;51.750;5.888;2023-11-19T09:56:59;100667.84;;;14.40;100.00
32320;BME280;19080;51.750;5.888;2023-11-19T09:59:30;100681.03;;;14.87;100.00
32320;BME280;19080;51.750;5.888;2023-11-19T10:01:57;100684.66;;;14.72;100.00
32320;BME280;19080;51.750;5.888;2023-11-19T10:04:25;100675.56;;;15.10;100.00
32320;BME280;19080;51.750;5.888;2023-11-19T10:06:56;100695.06;;;16.33;100.00
32320;BME280;19080;51.750;5.888;2023-11-19T10:09:23;100682.59;;;16.30;100.00
32320;BME280;19080;51.750;5.888;2023-11-19T10:11:49;100691.53;;;16.29;100.00
32320;BME280;19080;51.750;5.888;2023-11-19T10:14:19;100672.03;;;16.13;100.00
32320;BME280;19080;51.750;5.888;2023-11-19T10:16:47;100681.19;;;15.91;100.00
32320;BME280;19080;51.750;5.888;2023-11-19T10:19:20;100692.06;;;15.70;100.00
32320;BME280;19080;51.750;5.888;2023-11-19T10:21:47;100671.78;;;15.43;100.00
32320;BME280;19080;51.750;5.888;2023-11-19T10:24:14;100680.59;;;15.55;100.00
32320;BME280;19080;51.750;5.888;2023-11-19T10:26:59;100669.91;;;15.57;100.00
32320;BME280;19080;51.750;5.888;2023-11-19T10:29:29;100677.81;;;15.68;100.00
32320;BME280;19080;51.750;5.888;2023-11-19T10:31:56;100669.06;;;15.47;100.00
32320;BME280;19080;51.750;5.888;2023-11-19T10:34:43;100675.34;;;15.42;100.00
32320;BME280;19080;51.750;5.888;2023-11-19T10:37:27;100666.59;;;15.21;100.00
32320;BME280;19080;51.750;5.888;2023-11-19T10:39:55;100673.88;;;14.90;100.00
32320;BME280;19080;51.750;5.888;2023-11-19T10:42:21;100671.28;;;14.75;100.00
32320;BME280;19080;51.750;5.888;2023-11-19T10:44:48;100676.66;;;14.72;100.00
32320;BME280;19080;51.750;5.888;2023-11-19T10:47:18;100669.56;;;14.65;100.00
32320;BME280;19080;51.750;5.888;2023-11-19T10:49:46;100679.28;;;14.80;100.00
32320;BME280;19080;51.750;5.888;2023-11-19T10:52:17;100662.31;;;14.88;100.00
32320;BME280;19080;51.750;5.888;2023-11-19T10:54:45;100663.94;;;15.17;100.00
32320;BME280;19080;51.750;5.888;2023-11-19T10:57:20;100661.75;;;15.71;100.00
32320;BME280;19080;51.750;5.888;2023-11-19T10:59:49;100656.41;;;15.69;100.00
32320;BME280;19080;51.750;5.888;2023-11-19T11:02:19;100635.56;;;16.02;100.00
32320;BME280;19080;51.750;5.888;2023-11-19T11:04:49;100647.28;;;16.71;100.00
32320;BME280;19080;51.750;5.888;2023-11-19T11:07:19;100640.28;;;17.24;100.00
32320;BME280;19080;51.750;5.888;2023-11-19T11:09:52;100642.72;;;17.38;100.00
32320;BME280;19080;51.750;5.888;2023-11-19T11:12:21;100650.13;;;17.23;100.00
32320;BME280;19080;51.750;5.888;2023-11-19T11:14:50;100636.25;;;16.94;100.00
32320;BME280;19080;51.750;5.888;2023-11-19T11:17:18;100615.25;;;16.60;100.00
32320;BME280;19080;51.750;5.888;2023-11-19T11:19:45;100639.41;;;16.56;100.00
32320;BME280;19080;51.750;5.888;2023-11-19T11:22:14;100634.22;;;17.11;100.00
32320;BME280;19080;51.750;5.888;2023-11-19T11:25:27;100616.34;;;17.10;100.00
32320;BME280;19080;51.750;5.888;2023-11-19T11:28:09;100632.59;;;17.00;100.00
32320;BME280;19080;51.750;5.888;2023-11-19T11:30:53;100636.75;;;17.22;100.00
32320;BME280;19080;51.750;5.888;2023-11-19T11:38:42;100619.69;;;16.63;100.00
32320;BME280;19080;51.750;5.888;2023-11-19T11:41:19;100625.34;;;16.39;100.00
32320;BME280;19080;51.750;5.888;2023-11-19T11:49:06;100638.34;;;15.94;100.00
32320;BME280;19080;51.750;5.888;2023-11-19T11:54:10;100625.78;;;14.92;100.00
32320;BME280;19080;51.750;5.888;2023-11-19T11:56:37;100634.78;;;14.73;100.00
32320;BME280;19080;51.750;5.888;2023-11-19T11:59:08;100633.06;;;14.61;100.00
32320;BME280;19080;51.750;5.888;2023-11-19T12:01:59;100626.81;;;14.62;100.00
32320;BME280;19080;51.750;5.888;2023-11-19T12:04:29;100623.31;;;14.51;100.00
32320;BME280;19080;51.750;5.888;2023-11-19T12:07:12;100619.78;;;14.43;100.00
32320;BME280;19080;51.750;5.888;2023-11-19T12:09:48;100600.25;;;14.25;100.00
32320;BME280;19080;51.750;5.888;2023-11-19T12:15:01;100615.38;;;14.23;100.00
32320;BME280;19080;51.750;5.888;2023-11-19T12:20:02;100610.97;;;14.13;100.00
32320;BME280;19080;51.750;5.888;2023-11-19T12:22:29;100621.66;;;14.04;100.00
32320;BME280;19080;51.750;5.888;2023-11-19T12:24:56;100610.00;;;14.31;100.00
32320;BME280;19080;51.750;5.888;2023-11-19T12:27:22;100610.66;;;14.89;100.00
32320;BME280;19080;51.750;5.888;2023-11-19T12:29:49;100603.31;;;15.19;100.00
32320;BME280;19080;51.750;5.888;2023-11-19T12:32:16;100604.25;;;15.15;100.00
32320;BME280;19080;51.750;5.888;2023-11-19T12:34:44;100620.13;;;15.36;100.00
32320;BME280;19080;51.750;5.888;2023-11-19T12:37:11;100610.34;;;15.32;100.00
32320;BME280;19080;51.750;5.888;2023-11-19T12:39:38;100617.63;;;15.10;100.00
32320;BME280;19080;51.750;5.888;2023-11-19T12:42:05;100620.47;;;14.87;100.00
32320;BME280;19080;51.750;5.888;2023-11-19T12:44:32;100609.91;;;14.63;100.00
32320;BME280;19080;51.750;5.888;2023-11-19T12:47:05;100614.41;;;14.52;100.00
32320;BME280;19080;51.750;5.888;2023-11-19T12:49:33;100610.53;;;15.05;100.00
32320;BME280;19080;51.750;5.888;2023-11-19T12:52:00;100604.03;;;15.42;100.00
32320;BME280;19080;51.750;5.888;2023-11-19T12:54:35;100600.25;;;15.65;100.00
32320;BME280;19080;51.750;5.888;2023-11-19T12:57:03;100607.06;;;15.98;100.00
32320;BME280;19080;51.750;5.888;2023-11-19T12:59:31;100597.31;;;15.92;100.00
32320;BME280;19080;51.750;5.888;2023-11-19T13:01:58;100595.69;;;15.74;100.00
32320;BME280;19080;51.750;5.888;2023-11-19T13:04:29;100606.44;;;15.71;100.00